createdAt,value
2019-05-23T00:00:44.858Z,16.90
2019-05-23T00:03:16.124Z,15.60
2019-05-23T00:05:49.870Z,12.03
2019-05-23T00:08:24.206Z,15.57
2019-05-23T00:11:01.787Z,14.53
2019-05-23T00:13:57.668Z,14.23
2019-05-23T00:16:28.697Z,16.30
2019-05-23T00:18:58.711Z,14.47
2019-05-23T00:21:28.560Z,14.60
2019-05-23T00:24:00.148Z,17.83
2019-05-23T00:26:31.250Z,19.53
2019-05-23T00:29:09.944Z,16.20
2019-05-23T00:31:45.233Z,16.13
2019-05-23T00:34:15.265Z,19.00
2019-05-23T00:36:46.153Z,15.50
2019-05-23T00:39:16.832Z,17.40
2019-05-23T00:41:46.903Z,16.47
2019-05-23T00:44:16.843Z,17.47
2019-05-23T00:46:46.523Z,16.77
2019-05-23T00:49:16.919Z,15.27
2019-05-23T00:51:47.507Z,20.03
2019-05-23T00:54:18.188Z,18.43
2019-05-23T00:56:49.548Z,16.73
2019-05-23T00:59:27.306Z,18.73
2019-05-23T01:01:51.190Z,15.93
2019-05-23T01:04:21.972Z,17.17
2019-05-23T01:06:53.179Z,13.63
2019-05-23T01:09:25.275Z,15.60
2019-05-23T01:11:55.323Z,15.07
2019-05-23T01:14:25.792Z,21.07
2019-05-23T01:16:55.558Z,16.83
2019-05-23T01:19:25.650Z,18.47
2019-05-23T01:22:03.028Z,21.73
2019-05-23T01:24:35.226Z,17.93
2019-05-23T01:27:05.976Z,19.50
2019-05-23T01:29:49.475Z,15.43
2019-05-23T01:32:32.982Z,15.90
2019-05-23T01:35:03.038Z,16.93
2019-05-23T01:37:34.567Z,19.00
2019-05-23T01:40:05.379Z,16.43
2019-05-23T01:42:35.546Z,17.40
2019-05-23T01:45:06.157Z,15.67
2019-05-23T01:47:35.858Z,20.80
2019-05-23T01:50:06.711Z,18.17
2019-05-23T01:52:36.849Z,14.93
2019-05-23T01:55:07.983Z,15.27
2019-05-23T01:57:38.015Z,17.50
2019-05-23T02:00:11.349Z,13.67
2019-05-23T02:02:41.909Z,17.47
2019-05-23T02:05:11.591Z,15.50
2019-05-23T02:07:41.684Z,18.10
2019-05-23T02:10:13.157Z,18.07
2019-05-23T02:12:42.884Z,16.00
2019-05-23T02:15:12.673Z,14.23
2019-05-23T02:17:42.429Z,17.93
2019-05-23T02:20:14.199Z,16.70
2019-05-23T02:22:44.113Z,15.70
2019-05-23T02:25:16.761Z,14.07
2019-05-23T02:27:47.479Z,15.47
2019-05-23T02:30:33.882Z,13.07
2019-05-23T02:32:52.725Z,16.23
2019-05-23T02:35:22.743Z,15.03
2019-05-23T02:38:17.154Z,17.70
2019-05-23T02:40:56.190Z,17.17
2019-05-23T02:43:26.382Z,17.83
2019-05-23T02:46:00.017Z,19.07
2019-05-23T02:48:35.554Z,16.43
2019-05-23T02:51:08.623Z,17.53
2019-05-23T02:53:38.868Z,15.10
2019-05-23T02:56:11.620Z,14.40
2019-05-23T02:59:31.637Z,15.17
2019-05-23T03:02:47.946Z,12.87
2019-05-23T03:05:19.355Z,13.63
2019-05-23T03:07:50.385Z,15.97
2019-05-23T03:10:22.887Z,15.67
2019-05-23T03:12:52.656Z,15.07
2019-05-23T03:15:24.741Z,18.73
2019-05-23T03:17:56.714Z,15.30
2019-05-23T03:20:29.341Z,20.17
2019-05-23T03:23:06.026Z,16.33
2019-05-23T03:26:20.832Z,16.83
2019-05-23T03:28:50.250Z,15.40
2019-05-23T03:31:32.125Z,16.97
2019-05-23T03:34:01.032Z,16.87
2019-05-23T03:36:30.651Z,16.47
2019-05-23T03:39:00.121Z,15.90
2019-05-23T03:41:30.262Z,19.23
2019-05-23T03:44:01.484Z,18.27
2019-05-23T03:46:32.261Z,21.03
2019-05-23T03:49:02.033Z,22.07
2019-05-23T03:51:31.731Z,16.90
2019-05-23T03:54:02.280Z,18.33
2019-05-23T03:56:31.644Z,16.90
2019-05-23T03:59:01.859Z,16.17
2019-05-23T04:01:47.091Z,18.77
2019-05-23T04:04:04.999Z,18.87
2019-05-23T04:06:35.947Z,20.03
2019-05-23T04:09:07.932Z,16.40
2019-05-23T04:11:37.559Z,16.57
2019-05-23T04:14:07.663Z,16.00
2019-05-23T04:16:37.382Z,14.67
2019-05-23T04:19:06.902Z,14.93
2019-05-23T04:21:36.397Z,19.40
2019-05-23T04:24:06.280Z,18.13
2019-05-23T04:26:35.837Z,17.03
2019-05-23T04:29:05.301Z,16.77
2019-05-23T04:31:35.059Z,18.60
2019-05-23T04:34:04.581Z,16.33
2019-05-23T04:36:34.041Z,18.50
2019-05-23T04:39:05.042Z,18.27
2019-05-23T04:41:34.591Z,16.80
2019-05-23T04:44:06.182Z,15.73
2019-05-23T04:46:36.050Z,17.67
2019-05-23T04:49:06.582Z,19.47
2019-05-23T04:51:36.041Z,17.10
2019-05-23T04:54:06.373Z,19.90
2019-05-23T04:56:35.799Z,20.17
2019-05-23T04:59:05.762Z,17.93
2019-05-23T05:01:35.550Z,24.17
2019-05-23T05:04:06.401Z,21.93
2019-05-23T05:06:36.104Z,19.63
2019-05-23T05:09:08.621Z,17.23
2019-05-23T05:11:38.679Z,18.17
2019-05-23T05:14:08.424Z,21.77
2019-05-23T05:16:38.075Z,19.47
2019-05-23T05:19:07.824Z,21.87
2019-05-23T05:21:38.296Z,23.10
2019-05-23T05:24:07.675Z,21.23
2019-05-23T05:26:37.221Z,24.77
2019-05-23T05:29:07.076Z,22.90
2019-05-23T05:31:36.543Z,24.53
2019-05-23T05:34:06.303Z,22.80
2019-05-23T05:36:35.795Z,22.40
2019-05-23T05:39:07.904Z,21.97
2019-05-23T05:41:37.685Z,19.47
2019-05-23T05:44:07.155Z,20.77
2019-05-23T05:46:36.780Z,21.70
2019-05-23T05:49:07.025Z,19.37
2019-05-23T05:51:36.977Z,24.70
2019-05-23T05:54:07.509Z,23.30
2019-05-23T05:56:36.961Z,21.13
2019-05-23T05:59:06.446Z,21.57
2019-05-23T06:01:36.520Z,22.53
2019-05-23T06:04:07.119Z,21.57
2019-05-23T06:06:42.187Z,21.87
2019-05-23T06:09:29.498Z,23.30
2019-05-23T06:11:58.904Z,20.80
2019-05-23T06:14:28.321Z,20.50
2019-05-23T06:16:58.391Z,23.33
2019-05-23T06:19:27.980Z,20.43
2019-05-23T06:21:57.360Z,18.30
2019-05-23T06:24:41.656Z,20.90
2019-05-23T06:26:58.796Z,19.80
2019-05-23T06:29:28.473Z,18.53
2019-05-23T06:31:58.326Z,21.67
2019-05-23T06:34:27.852Z,20.00
2019-05-23T06:36:57.261Z,19.90
2019-05-23T06:39:26.864Z,24.03
2019-05-23T06:41:57.081Z,20.33
2019-05-23T06:44:26.576Z,19.97
2019-05-23T06:46:56.299Z,18.17
2019-05-23T06:49:25.679Z,19.37
2019-05-23T06:51:55.353Z,17.87
2019-05-23T06:54:24.969Z,20.30
2019-05-23T06:56:54.423Z,24.50
2019-05-23T06:59:23.927Z,21.50
2019-05-23T07:01:53.402Z,17.03
2019-05-23T07:04:22.853Z,14.23
2019-05-23T07:06:52.415Z,16.23
2019-05-23T07:09:22.196Z,18.33
2019-05-23T07:11:55.770Z,14.20
2019-05-23T07:14:25.239Z,13.87
2019-05-23T07:16:54.734Z,15.40
2019-05-23T07:19:24.243Z,13.37
2019-05-23T07:21:53.818Z,12.97
2019-05-23T07:24:24.162Z,15.57
2019-05-23T07:26:53.547Z,13.47
2019-05-23T07:29:23.503Z,8.87
2019-05-23T07:31:53.300Z,9.70
2019-05-23T07:34:23.818Z,10.93
2019-05-23T07:36:54.407Z,6.83
2019-05-23T07:39:23.868Z,7.73
2019-05-23T07:41:53.624Z,7.43
2019-05-23T07:44:23.482Z,10.80
2019-05-23T07:46:53.114Z,11.33
2019-05-23T07:49:23.147Z,12.47
2019-05-23T07:51:52.621Z,8.93
2019-05-23T07:54:40.985Z,7.17
2019-05-23T07:57:12.956Z,5.73
2019-05-23T07:59:42.431Z,7.10
2019-05-23T08:02:25.498Z,8.03
2019-05-23T08:04:53.375Z,4.53
2019-05-23T08:07:23.680Z,3.17
2019-05-23T08:09:53.380Z,2.80
2019-05-23T08:12:23.045Z,4.20
2019-05-23T08:14:52.619Z,6.57
2019-05-23T08:17:22.392Z,6.30
2019-05-23T08:19:52.166Z,6.30
2019-05-23T08:22:21.718Z,7.07
2019-05-23T08:24:51.600Z,5.90
2019-05-23T08:27:21.348Z,5.87
2019-05-23T08:29:51.040Z,5.93
2019-05-23T08:32:20.524Z,5.97
2019-05-23T08:34:50.219Z,5.70
2019-05-23T08:37:20.058Z,7.23
2019-05-23T08:39:49.900Z,6.83
2019-05-23T08:42:20.006Z,8.03
2019-05-23T08:44:49.552Z,7.67
2019-05-23T08:47:19.800Z,12.57
2019-05-23T08:49:49.655Z,8.20
2019-05-23T08:52:19.196Z,6.70
2019-05-23T08:54:51.287Z,7.63
2019-05-23T08:57:20.992Z,8.80
2019-05-23T08:59:51.099Z,6.90
2019-05-23T09:02:20.545Z,6.77
2019-05-23T09:05:03.739Z,8.57
2019-05-23T09:07:21.517Z,9.10
2019-05-23T09:09:51.058Z,6.97
2019-05-23T09:12:20.791Z,7.37
2019-05-23T09:14:50.546Z,6.60
2019-05-23T09:17:20.237Z,8.13
2019-05-23T09:19:49.859Z,7.23
2019-05-23T09:22:19.700Z,6.90
2019-05-23T09:24:49.218Z,8.47
2019-05-23T09:27:18.723Z,7.23
2019-05-23T09:29:48.381Z,10.10
2019-05-23T09:32:18.059Z,8.27
2019-05-23T09:34:47.611Z,6.70
2019-05-23T09:37:18.872Z,6.70
2019-05-23T09:39:49.797Z,7.20
2019-05-23T09:42:19.429Z,7.07
2019-05-23T09:44:49.056Z,8.10
2019-05-23T09:47:18.564Z,7.07
2019-05-23T09:49:55.355Z,6.37
2019-05-23T09:52:20.335Z,6.50
2019-05-23T09:54:49.954Z,7.43
2019-05-23T09:57:19.666Z,7.87
2019-05-23T09:59:49.223Z,6.30
2019-05-23T10:02:18.866Z,8.07
2019-05-23T10:04:48.471Z,8.50
2019-05-23T10:07:18.003Z,7.37
2019-05-23T10:09:47.534Z,5.53
2019-05-23T10:12:17.123Z,6.37
2019-05-23T10:14:46.675Z,6.73
2019-05-23T10:17:16.205Z,11.27
2019-05-23T10:19:45.836Z,6.93
2019-05-23T10:22:15.747Z,7.67
2019-05-23T10:24:45.245Z,6.07
2019-05-23T10:27:14.841Z,7.57
2019-05-23T10:29:44.363Z,7.40
2019-05-23T10:32:13.995Z,7.10
2019-05-23T10:34:43.604Z,6.67
2019-05-23T10:37:16.345Z,6.30
2019-05-23T10:39:49.934Z,7.87
2019-05-23T10:42:20.042Z,8.70
2019-05-23T10:44:50.098Z,6.93
2019-05-23T10:47:21.894Z,5.40
2019-05-23T10:50:10.367Z,7.87
2019-05-23T10:52:40.267Z,7.37
2019-05-23T10:55:10.649Z,5.77
2019-05-23T10:57:40.424Z,11.43
2019-05-23T11:00:14.961Z,7.33
2019-05-23T11:02:46.009Z,6.53
2019-05-23T11:05:16.156Z,8.77
2019-05-23T11:07:45.998Z,8.27
2019-05-23T11:10:16.492Z,5.43
2019-05-23T11:23:34.011Z,5.23
2019-05-23T11:26:04.242Z,5.73
2019-05-23T11:28:35.736Z,6.90
2019-05-23T11:31:07.019Z,6.13
2019-05-23T11:33:36.793Z,7.47
2019-05-23T11:36:06.760Z,7.37
2019-05-23T11:38:36.525Z,5.80
2019-05-23T11:41:06.118Z,7.30
2019-05-23T11:43:35.828Z,6.57
2019-05-23T11:46:12.656Z,6.57
2019-05-23T11:48:42.256Z,6.53
2019-05-23T11:51:11.993Z,5.97
2019-05-23T11:53:45.452Z,7.37
2019-05-23T11:56:13.005Z,6.23
2019-05-23T11:58:42.553Z,5.60
2019-05-23T12:01:24.090Z,6.87
2019-05-23T12:03:59.475Z,4.97
2019-05-23T12:06:33.547Z,6.77
2019-05-23T12:09:03.083Z,9.30
2019-05-23T12:11:36.633Z,4.43
2019-05-23T12:14:04.865Z,7.03
2019-05-23T12:16:34.512Z,5.33
2019-05-23T12:19:04.378Z,4.87
2019-05-23T12:21:34.307Z,5.33
2019-05-23T12:24:03.846Z,4.77
2019-05-23T12:26:33.433Z,5.97
2019-05-23T12:29:03.183Z,4.40
2019-05-23T12:31:32.864Z,5.53
2019-05-23T12:34:02.484Z,5.53
2019-05-23T12:36:32.436Z,5.03
2019-05-23T12:39:02.395Z,4.70
2019-05-23T12:41:31.917Z,6.93
2019-05-23T12:44:01.417Z,5.07
2019-05-23T12:46:31.075Z,5.20
2019-05-23T12:49:09.473Z,5.53
2019-05-23T12:51:56.715Z,6.90
2019-05-23T12:54:26.669Z,5.37
2019-05-23T12:56:58.500Z,5.87
2019-05-23T12:59:28.230Z,6.90
2019-05-23T13:05:28.366Z,7.83
2019-05-23T13:08:00.643Z,5.80
2019-05-23T13:10:30.926Z,7.37
2019-05-23T13:13:00.464Z,5.37
2019-05-23T13:15:31.002Z,7.10
2019-05-23T13:18:00.596Z,5.67
2019-05-23T13:20:30.942Z,5.50
2019-05-23T13:23:00.685Z,5.80
2019-05-23T13:25:30.666Z,6.57
2019-05-23T13:28:00.298Z,4.50
2019-05-23T13:30:29.883Z,5.37
2019-05-23T13:33:03.376Z,4.80
2019-05-23T13:35:31.222Z,5.13
2019-05-23T13:38:00.813Z,5.00
2019-05-23T13:40:30.429Z,5.43
2019-05-23T13:43:00.072Z,5.17
2019-05-23T13:45:29.620Z,5.17
2019-05-23T13:47:59.324Z,5.37
2019-05-23T13:50:28.892Z,5.13
2019-05-23T13:52:58.604Z,5.50
2019-05-23T13:55:28.409Z,5.17
2019-05-23T13:57:58.188Z,4.90
2019-05-23T14:00:28.751Z,5.03
2019-05-23T14:02:58.791Z,3.80
2019-05-23T14:05:29.007Z,4.70
2019-05-23T14:08:11.519Z,7.23
2019-05-23T14:10:30.233Z,5.23
2019-05-23T14:13:00.132Z,6.23
2019-05-23T14:15:35.123Z,5.17
2019-05-23T14:18:04.907Z,5.43
2019-05-23T14:20:34.577Z,5.33
2019-05-23T14:23:11.653Z,6.87
2019-05-23T14:25:41.539Z,7.10
2019-05-23T14:28:11.483Z,4.50
2019-05-23T14:30:58.977Z,6.47
2019-05-23T14:33:46.516Z,4.03
2019-05-23T14:36:41.649Z,4.20
2019-05-23T14:39:24.205Z,4.57
2019-05-23T14:41:59.815Z,6.07
2019-05-23T14:44:29.432Z,5.23
2019-05-23T14:47:17.206Z,10.57
2019-05-23T14:49:55.944Z,6.10
2019-05-23T14:52:31.030Z,5.40
2019-05-23T14:55:03.511Z,5.10
2019-05-23T14:57:33.306Z,5.40
2019-05-23T15:00:03.083Z,4.07
2019-05-23T15:02:33.473Z,4.43
2019-05-23T15:05:04.480Z,7.53
2019-05-23T15:07:34.700Z,5.20
2019-05-23T15:10:05.515Z,4.60
2019-05-23T15:12:35.139Z,3.90
2019-05-23T15:15:06.389Z,5.07
2019-05-23T15:17:36.099Z,5.30
2019-05-23T15:20:06.512Z,5.00
2019-05-23T15:22:36.314Z,4.07
2019-05-23T15:25:06.390Z,4.80
2019-05-23T15:27:36.028Z,4.67
2019-05-23T15:30:06.627Z,5.13
2019-05-23T15:32:36.219Z,4.90
2019-05-23T15:35:05.933Z,5.43
2019-05-23T15:37:35.569Z,5.83
2019-05-23T15:40:05.794Z,5.10
2019-05-23T15:42:35.388Z,4.73
2019-05-23T15:45:05.387Z,4.23
2019-05-23T15:47:36.215Z,4.63
2019-05-23T15:50:11.386Z,6.37
2019-05-23T15:53:04.964Z,4.33
2019-05-23T15:55:42.836Z,5.73
2019-05-23T15:58:30.757Z,4.27
2019-05-23T16:01:15.503Z,3.63
2019-05-23T16:03:47.804Z,4.67
2019-05-23T16:06:19.345Z,4.70
2019-05-23T16:08:49.298Z,4.10
2019-05-23T16:11:18.905Z,4.30
2019-05-23T16:13:48.486Z,4.10
2019-05-23T16:16:18.023Z,5.90
2019-05-23T16:18:48.370Z,6.67
2019-05-23T16:21:18.756Z,4.30
2019-05-23T16:23:48.297Z,6.23
2019-05-23T16:26:18.366Z,4.10
2019-05-23T16:28:47.945Z,3.93
2019-05-23T16:31:17.565Z,5.37
2019-05-23T16:33:47.148Z,5.57
2019-05-23T16:36:16.930Z,4.40
2019-05-23T16:38:46.445Z,5.37
2019-05-23T16:41:16.068Z,3.87
2019-05-23T16:43:45.617Z,4.63
2019-05-23T16:46:15.302Z,3.90
2019-05-23T16:48:44.906Z,4.27
2019-05-23T16:51:14.622Z,4.10
2019-05-23T16:53:44.804Z,7.00
2019-05-23T16:56:22.551Z,6.23
2019-05-23T16:59:13.858Z,3.83
2019-05-23T17:02:17.848Z,5.10
2019-05-23T17:05:09.837Z,5.83
2019-05-23T17:07:47.906Z,3.90
2019-05-23T17:10:22.286Z,4.60
2019-05-23T17:13:02.947Z,3.50
2019-05-23T17:15:43.351Z,4.97
2019-05-23T17:18:44.483Z,4.73
2019-05-23T17:21:39.343Z,6.20
2019-05-23T17:24:14.270Z,7.03
2019-05-23T17:26:51.694Z,5.80
2019-05-23T17:29:38.907Z,4.73
2019-05-23T17:32:10.855Z,4.30
2019-05-23T17:34:40.527Z,6.20
2019-05-23T17:37:12.194Z,6.13
2019-05-23T17:39:43.767Z,4.63
2019-05-23T17:42:13.477Z,4.77
2019-05-23T17:44:43.076Z,3.80
2019-05-23T17:47:12.795Z,4.27
2019-05-23T17:49:42.387Z,4.30
2019-05-23T17:52:12.695Z,3.87
2019-05-23T17:54:42.378Z,4.63
2019-05-23T17:57:11.971Z,3.67
2019-05-23T17:59:41.895Z,4.40
2019-05-23T18:02:12.859Z,3.57
2019-05-23T18:04:42.366Z,3.60
2019-05-23T18:07:12.824Z,4.90
2019-05-23T18:09:42.323Z,4.70
2019-05-23T18:12:12.701Z,4.30
2019-05-23T18:14:43.559Z,4.30
2019-05-23T18:17:13.232Z,5.00
2019-05-23T18:19:43.173Z,4.43
2019-05-23T18:22:14.050Z,4.90
2019-05-23T18:24:43.581Z,5.03
2019-05-23T18:27:13.783Z,3.90
2019-05-23T18:29:43.736Z,3.13
2019-05-23T18:32:18.592Z,3.80
2019-05-23T18:34:48.449Z,4.27
2019-05-23T18:37:18.544Z,5.63
2019-05-23T18:39:48.392Z,6.63
2019-05-23T18:42:18.616Z,8.47
2019-05-23T18:44:48.122Z,4.60
2019-05-23T18:47:29.278Z,7.07
2019-05-23T18:49:59.073Z,4.27
2019-05-23T18:52:28.647Z,6.37
2019-05-23T18:54:58.340Z,4.60
2019-05-23T18:57:28.325Z,5.83
2019-05-23T18:59:57.981Z,4.67
2019-05-23T19:02:27.862Z,6.63
2019-05-23T19:04:58.032Z,4.80
2019-05-23T19:07:28.003Z,4.90
2019-05-23T19:09:57.664Z,6.77
2019-05-23T19:12:27.234Z,7.00
2019-05-23T19:14:56.965Z,4.93
2019-05-23T19:17:26.595Z,14.40
2019-05-23T19:19:58.349Z,7.97
2019-05-23T19:22:28.429Z,11.33
2019-05-23T19:24:58.297Z,4.93
2019-05-23T19:27:27.824Z,9.10
2019-05-23T19:29:57.808Z,7.43
2019-05-23T19:32:27.410Z,5.10
2019-05-23T19:34:57.075Z,5.37
2019-05-23T19:37:27.261Z,7.20
2019-05-23T19:39:56.770Z,7.03
2019-05-23T19:42:26.285Z,7.33
2019-05-23T19:44:55.849Z,7.20
2019-05-23T19:47:27.249Z,11.10
2019-05-23T19:49:56.827Z,5.47
2019-05-23T19:52:26.761Z,6.83
2019-05-23T19:54:56.756Z,8.60
2019-05-23T19:57:26.623Z,9.27
2019-05-23T19:59:56.153Z,8.63
2019-05-23T20:02:44.717Z,7.33
2019-05-23T20:05:22.697Z,10.20
2019-05-23T20:07:52.373Z,12.23
2019-05-23T20:10:23.931Z,6.80
2019-05-23T20:13:12.854Z,9.80
2019-05-23T20:15:45.589Z,10.70
2019-05-23T20:18:14.315Z,14.00
2019-05-23T20:20:44.010Z,8.87
2019-05-23T20:23:16.028Z,7.00
2019-05-23T20:25:45.233Z,10.43
2019-05-23T20:28:14.881Z,10.77
2019-05-23T20:31:04.657Z,10.67
2019-05-23T20:33:34.415Z,11.43
2019-05-23T20:36:06.870Z,9.47
2019-05-23T20:38:36.465Z,7.50
2019-05-23T20:41:06.192Z,10.33
2019-05-23T20:43:35.913Z,9.63
2019-05-23T20:46:05.617Z,8.93
2019-05-23T20:48:36.355Z,11.23
2019-05-23T20:51:06.072Z,10.03
2019-05-23T20:53:35.853Z,14.17
2019-05-23T20:56:05.732Z,10.60
2019-05-23T20:58:35.531Z,7.67
2019-05-23T21:01:18.913Z,9.50
2019-05-23T21:03:49.563Z,11.37
2019-05-23T21:06:19.184Z,13.67
2019-05-23T21:08:48.825Z,9.73
2019-05-23T21:11:18.537Z,7.90
2019-05-23T21:13:48.260Z,9.60
2019-05-23T21:16:17.894Z,10.73
2019-05-23T21:18:49.977Z,8.70
2019-05-23T21:21:18.846Z,10.07
2019-05-23T21:23:48.674Z,9.93
2019-05-23T21:26:18.304Z,8.60
2019-05-23T21:28:47.869Z,13.27
2019-05-23T21:31:21.996Z,11.50
2019-05-23T21:33:51.717Z,9.67
2019-05-23T21:36:21.521Z,10.23
2019-05-23T21:38:51.148Z,10.63
2019-05-23T21:41:20.770Z,9.20
2019-05-23T21:43:52.330Z,10.30
2019-05-23T21:46:21.997Z,9.43
2019-05-23T21:48:51.627Z,12.20
2019-05-23T21:51:21.517Z,12.40
2019-05-23T21:53:51.149Z,12.17
2019-05-23T21:56:20.772Z,10.47
2019-05-23T21:58:50.392Z,9.47
2019-05-23T22:01:41.442Z,10.07
2019-05-23T22:04:45.271Z,12.50
2019-05-23T22:07:15.213Z,12.40
2019-05-23T22:09:45.310Z,12.53
2019-05-23T22:12:15.232Z,11.13
2019-05-23T22:14:45.408Z,10.70
2019-05-23T22:17:15.080Z,10.37
2019-05-23T22:19:44.713Z,11.27
2019-05-23T22:22:14.334Z,9.93
2019-05-23T22:24:43.967Z,7.77
2019-05-23T22:27:14.950Z,9.97
2019-05-23T22:29:44.641Z,10.43
2019-05-23T22:32:16.006Z,7.97
2019-05-23T22:34:59.444Z,10.57
2019-05-23T22:37:30.255Z,8.27
2019-05-23T22:39:59.880Z,11.50
2019-05-23T22:42:30.148Z,10.50
2019-05-23T22:44:59.851Z,11.20
2019-05-23T22:47:29.839Z,13.37
2019-05-23T22:49:59.446Z,12.13
2019-05-23T22:52:29.165Z,10.93
2019-05-23T22:54:58.759Z,13.57
2019-05-23T22:57:28.367Z,15.57
2019-05-23T22:59:58.031Z,10.40
2019-05-23T23:02:27.797Z,13.33
2019-05-23T23:04:57.641Z,13.07
2019-05-23T23:07:27.318Z,12.90
2019-05-23T23:09:56.836Z,11.83
2019-05-23T23:12:26.531Z,11.43
2019-05-23T23:14:56.146Z,11.93
2019-05-23T23:17:25.712Z,10.53
2019-05-23T23:19:55.398Z,11.10
2019-05-23T23:22:25.030Z,13.23
2019-05-23T23:24:54.660Z,13.27
2019-05-23T23:27:24.262Z,12.20
2019-05-23T23:29:53.794Z,12.70
2019-05-23T23:32:23.448Z,13.80
2019-05-23T23:34:53.291Z,15.83
2019-05-23T23:37:23.076Z,13.23
2019-05-23T23:39:52.603Z,16.33
2019-05-23T23:42:22.365Z,12.83
2019-05-23T23:44:51.276Z,14.20
2019-05-23T23:47:38.555Z,12.50
2019-05-23T23:50:26.097Z,11.33
2019-05-23T23:53:13.515Z,11.00
2019-05-23T23:56:00.955Z,11.87
2019-05-23T23:58:30.018Z,11.83
